Flight Track Log - Related Links

Times and Time Zones

All times are in EDT time to prevent confusion due to time zone crossing. See the ASQ4314 flight status page for this flight to view local times or setup timezone preferences in your user account.

Time Position Orientation Groundspeed Altitude Reporting Facility
EDT Latitude Longitude Course Direction KTS MPH feet Rate Location/Type
Mon 09:26:08 PM 40.7667 -73.8500 90° East 160 184 1,000  Level New York TRACON
Mon 09:27:02 PM 40.7667 -73.8000 90° East 197 227 2,800 2,000 Climbing New York TRACON
Mon 09:28:02 PM 40.8167 -73.8000 360° North 228 262 4,800 2,300 Climbing New York TRACON
Mon 09:29:02 PM 40.8333 -73.8833 285° West 251 289 7,400 2,400 Climbing New York TRACON
Mon 09:30:02 PM 40.8500 -73.9667 285° West 267 307 9,600 1,491 Climbing New York TRACON
Mon 09:31:43 PM 40.8631 -74.1542 275° West 331 381 11,400 1,245 Climbing New York Center
Mon 09:32:41 PM 40.8719 -74.2781 275° West 347 399 12,900 1,450 Climbing New York Center
Mon 09:33:43 PM 40.8808 -74.4047 275° West 346 398 14,300 1,352 Climbing New York Center
Mon 09:35:43 PM 40.8936 -74.6525 254° West 346 398 17,000 681 Climbing New York Center
Mon 09:37:41 PM 40.8908 -74.9214 269° West 389 448 17,000 433 Level New York Center
Mon 09:38:43 PM 40.8642 -75.0789 257° West 403 464 18,300 1,300 Climbing New York Center
Mon 09:39:41 PM 40.8453 -75.2011 258° West 403 464 19,600 1,513 Climbing New York Center
Mon 09:40:42 PM 40.8214 -75.3367 257° West 391 450 21,300 1,672 Climbing New York Center
Mon 09:41:43 PM 40.7994 -75.4669 257° West 379 436 23,000 1,664 Climbing New York Center
Mon 09:42:00 PM 40.9116 -75.1246 285° West  Level FlightAware Approximate
Mon 09:42:41 PM 40.7756 -75.5939 256° West 368 423 24,600  Level New York Center
Mon 09:43:00 PM 40.9058 -75.2103 252° West  Level FlightAware Approximate
Mon 09:43:43 PM 40.7533 -75.7322 258° West 363 418 26,100  Level New York Center
Mon 09:44:00 PM 40.8863 -75.2952 254° West  Level FlightAware Approximate
Mon 09:44:43 PM 40.7311 -75.8619 257° West 363 418 27,200  Level New York Center
Mon 09:45:43 PM 40.7086 -75.9917 257° West 363 418 28,500 1,373 Climbing New York Center
Mon 09:46:41 PM 40.6842 -76.1214 256° West 368 423 29,900 1,400 Climbing New York Center
Mon 09:47:43 PM 40.6678 -76.2486 260° West 368 423 31,300 1,050 Climbing New York Center
Mon 09:48:41 PM 40.6847 -76.3814 280° West 363 418 32,000 353 Climbing New York Center
Mon 09:49:42 PM 40.7094 -76.5175 284° West 375 432 32,000  Level New York Center
Mon 09:50:42 PM 40.7336 -76.6592 283° West 386 444 32,000  Level New York Center
Mon 09:51:43 PM 40.7594 -76.8094 283° West 405 466 32,000  Level New York Center
Mon 09:52:43 PM 40.7828 -76.9594 282° West 416 479 32,000  Level New York Center
Mon 09:53:41 PM 40.8083 -77.1100 283° West 421 484 32,000  Level New York Center
Mon 09:54:40 PM 40.8336 -77.2606 283° West 421 484 32,000  Level New York Center
Mon 09:55:36 PM 40.8561 -77.3983 282° West 422 486 32,000  Level Cleveland Center
Mon 09:56:37 PM 40.8806 -77.5506 282° West 424 488 32,000  Level Cleveland Center
Mon 09:57:39 PM 40.9028 -77.6975 281° West 416 479 32,000  Level Cleveland Center
Mon 09:58:40 PM 40.9258 -77.8411 282° West 409 471 32,000  Level Cleveland Center
Mon 09:59:42 PM 40.9483 -77.9853 282° West 405 466 32,000  Level Cleveland Center
Mon 10:00:43 PM 40.9711 -78.1311 282° West 405 466 32,000  Level Cleveland Center
Mon 10:01:44 PM 40.9939 -78.2833 281° West 420 483 32,000  Level Cleveland Center
Mon 10:02:46 PM 41.0242 -78.4719 282° West 436 502 32,000  Level Cleveland Center
Mon 10:03:47 PM 41.0469 -78.6258 281° West 433 498 32,000  Level Cleveland Center
Mon 10:04:49 PM 41.0686 -78.7806 281° West 433 498 32,000  Level Cleveland Center
Mon 10:05:50 PM 41.0914 -78.9350 281° West 432 497 32,000  Level Cleveland Center
Mon 10:06:52 PM 41.1133 -79.0869 281° West 427 491 32,000  Level Cleveland Center
Mon 10:07:53 PM 41.1375 -79.2536 281° West 427 491 32,000 -49 Level Cleveland Center
Mon 10:08:55 PM 41.1575 -79.3942 281° West 426 490 31,900 -683 Descending Cleveland Center
Mon 10:09:56 PM 41.1836 -79.5761 281° West 424 488 30,600 -1,220 Descending Cleveland Center
Mon 10:10:58 PM 41.2017 -79.7094 280° West 422 486 29,400 -1,415 Descending Cleveland Center
Mon 10:11:59 PM 41.2269 -79.8983 280° West 433 498 27,700 -1,463 Descending Cleveland Center
Mon 10:13:01 PM 41.2483 -80.0464 281° West 441 507 26,400 -1,463 Descending Cleveland Center
Mon 10:14:02 PM 41.2689 -80.2058 280° West 441 507 24,700 -1,317 Descending Cleveland Center
Mon 10:15:04 PM 41.2903 -80.3553 281° West 419 482 23,700 -1,707 Descending Cleveland Center
Mon 10:16:05 PM 41.3094 -80.5056 280° West 416 479 21,200 -2,878 Descending Cleveland Center
Mon 10:17:07 PM 41.3344 -80.6758 281° West 393 452 17,800 -2,913 Descending Cleveland Center
Mon 10:17:48 PM 41.3633 -80.7567 295° West 377 434 16,200 -2,613 Descending Cleveland Center
Mon 10:18:09 PM 41.3797 -80.7983 298° West 376 433 15,100 -3,125 Descending Cleveland Center
Mon 10:18:36 PM 41.4008 -80.8594 295° West 364 419 13,700 -2,852 Descending Cleveland Center
Mon 10:19:10 PM 41.4247 -80.9172 299° West 368 423 12,200 -2,754 Descending Cleveland Center
Mon 10:19:37 PM 41.4453 -80.9775 294° West 360 414 10,900 -1,935 Descending Cleveland Center
Mon 10:20:12 PM 41.4686 -81.0372 298° West 365 420 10,200 -800 Descending Cleveland Center
Mon 10:20:37 PM 41.4772 -81.0967 281° West 346 398 10,100 -197 Descending Cleveland Center
Mon 10:21:13 PM 41.4658 -81.1556 256° West 359 413 10,000 -98 Descending Cleveland Center
Mon 10:21:38 PM 41.4519 -81.2183 254° West 343 395 10,000  Level Cleveland Center
Mon 10:22:15 PM 41.4431 -81.2731 258° West 336 387 10,000 -444 Level Cleveland Center
Mon 10:22:32 PM 41.4353 -81.3133 256° West 263 303 9,600 -1,377 Descending Cleveland Center
Mon 10:23:16 PM 41.4258 -81.3622 256° West 272 313 8,600 -1,791 Descending Cleveland Center
Mon 10:23:39 PM 41.4133 -81.4214 254° West 256 295 7,600 -2,032 Descending Cleveland Center
Mon 10:24:18 PM 41.4033 -81.4781 257° West 265 305 6,500 -1,770 Descending Cleveland Center
Mon 10:24:40 PM 41.3964 -81.5164 256° West 267 307 5,800 -1,869 Descending Cleveland Center
Mon 10:25:19 PM 41.3836 -81.5719 253° West 265 305 4,600 -1,818 Descending Cleveland Center
Mon 10:25:46 PM 41.3692 -81.6097 243° Southwest 257 296 3,800 -1,452 Descending Cleveland Center
Mon 10:26:21 PM 41.3542 -81.6522 245° Southwest 257 296 3,100 -764 Descending Cleveland Center
Mon 10:26:41 PM 41.3406 -81.6914 245° Southwest 261 300 3,100 -98 Level Cleveland Center
Mon 10:27:22 PM 41.3200 -81.7456 243° Southwest 258 297 3,000 -100 Descending Cleveland Center
Mon 10:27:41 PM 41.3094 -81.7811 248° West 264 304 3,000  Level Cleveland Center
Mon 10:28:24 PM 41.2933 -81.8422 251° West 261 300 3,000 -179 Level Cleveland Center
Mon 10:28:48 PM 41.3186 -81.8633 328° Northwest 199 229 2,800 -706 Descending Cleveland Center
Mon 10:29:49 PM 41.3489 -81.8992 318° Northwest 125 144 2,000 -783 Descending Cleveland Center
Mon 10:30:43 PM 41.3847 -81.8967 North 139 160 1,300 -778 Descending Cleveland Center
Mon 10:32:00 PM 41.4000 -81.8500 314° West  Level FlightAware Approximate

Login

Don't have an account? Register now (free) for customized features, flight alerts, and more!